createdAt,value
2017-10-25T00:00:16.404Z,0
2017-10-25T00:01:16.317Z,0
2017-10-25T00:02:16.078Z,0
2017-10-25T00:03:15.569Z,0
2017-10-25T00:04:15.330Z,0
2017-10-25T00:05:16.289Z,0
2017-10-25T00:06:15.421Z,0
2017-10-25T00:07:16.150Z,0
2017-10-25T00:08:15.638Z,0
2017-10-25T00:09:15.913Z,0
2017-10-25T00:10:15.964Z,0
2017-10-25T00:11:15.948Z,0
2017-10-25T00:12:15.607Z,0
2017-10-25T00:13:16.278Z,0
2017-10-25T00:14:15.955Z,0
2017-10-25T00:15:16.885Z,0
2017-10-25T00:16:16.273Z,0
2017-10-25T00:17:15.438Z,0
2017-10-25T00:18:15.889Z,0
2017-10-25T00:19:15.405Z,0
2017-10-25T00:20:15.906Z,0
2017-10-25T00:21:15.629Z,0
2017-10-25T00:22:16.085Z,0
2017-10-25T00:23:15.964Z,0
2017-10-25T00:24:15.809Z,0
2017-10-25T00:25:15.147Z,0
2017-10-25T00:26:16.862Z,0
2017-10-25T00:27:15.613Z,0
2017-10-25T00:28:15.814Z,0
2017-10-25T00:29:16.442Z,0
2017-10-25T00:30:15.119Z,0
2017-10-25T00:31:15.710Z,0
2017-10-25T00:32:15.763Z,0
2017-10-25T00:33:16.213Z,0
2017-10-25T00:34:15.512Z,0
2017-10-25T00:35:15.970Z,0
2017-10-25T00:36:15.942Z,0
2017-10-25T00:37:15.772Z,0
2017-10-25T00:38:15.372Z,0
2017-10-25T00:39:16.067Z,0
2017-10-25T00:40:15.294Z,0
2017-10-25T00:41:15.386Z,0
2017-10-25T00:42:15.722Z,0
2017-10-25T00:43:15.836Z,0
2017-10-25T00:44:14.993Z,0
2017-10-25T00:45:14.969Z,0
2017-10-25T00:46:14.962Z,0
2017-10-25T00:47:15.644Z,0
2017-10-25T00:48:15.657Z,0
2017-10-25T00:49:15.316Z,0
2017-10-25T00:50:15.265Z,0
2017-10-25T00:51:14.941Z,0
2017-10-25T00:52:14.907Z,0
2017-10-25T00:53:14.901Z,0
2017-10-25T00:54:14.890Z,0
2017-10-25T00:55:15.572Z,0
2017-10-25T00:56:15.556Z,0
2017-10-25T00:57:15.554Z,0
2017-10-25T00:58:15.195Z,0
2017-10-25T00:59:14.843Z,0
2017-10-25T01:00:15.517Z,0
2017-10-25T01:01:15.531Z,0
2017-10-25T01:02:15.539Z,0
2017-10-25T01:03:15.545Z,0
2017-10-25T01:04:15.857Z,0
2017-10-25T01:05:15.133Z,0
2017-10-25T01:06:15.123Z,0
2017-10-25T01:07:15.477Z,0
2017-10-25T01:08:15.107Z,0
2017-10-25T01:09:15.099Z,0
2017-10-25T01:10:15.088Z,0
2017-10-25T01:11:15.418Z,0
2017-10-25T01:12:15.077Z,0
2017-10-25T01:13:15.076Z,0
2017-10-25T01:14:15.056Z,0
2017-10-25T01:15:15.386Z,0
2017-10-25T01:16:14.699Z,0
2017-10-25T01:17:15.026Z,0
2017-10-25T01:18:15.361Z,0
2017-10-25T01:19:15.008Z,0
2017-10-25T01:20:15.340Z,0
2017-10-25T01:21:15.692Z,0
2017-10-25T01:22:14.980Z,0
2017-10-25T01:23:15.341Z,0
2017-10-25T01:24:15.297Z,0
2017-10-25T01:25:14.983Z,0
2017-10-25T01:26:14.971Z,0
2017-10-25T01:27:15.294Z,0
2017-10-25T01:28:15.281Z,0
2017-10-25T01:29:15.273Z,0
2017-10-25T01:30:14.614Z,0
2017-10-25T01:31:14.584Z,0
2017-10-25T01:32:14.893Z,0
2017-10-25T01:33:15.250Z,0
2017-10-25T01:34:14.893Z,0
2017-10-25T01:35:15.914Z,0
2017-10-25T01:36:15.897Z,0
2017-10-25T01:37:14.854Z,0
2017-10-25T01:38:14.507Z,0
2017-10-25T01:39:14.835Z,0
2017-10-25T01:40:15.166Z,0
2017-10-25T01:41:15.194Z,0
2017-10-25T01:42:15.146Z,0
2017-10-25T01:43:14.795Z,0
2017-10-25T01:44:15.169Z,0
2017-10-25T01:45:14.438Z,0
2017-10-25T01:46:15.480Z,0
2017-10-25T01:47:15.111Z,0
2017-10-25T01:48:14.763Z,0
2017-10-25T01:49:14.744Z,0
2017-10-25T01:50:15.071Z,0
2017-10-25T01:51:14.385Z,0
2017-10-25T01:52:14.728Z,0
2017-10-25T01:53:14.369Z,0
2017-10-25T01:54:15.038Z,0
2017-10-25T01:55:15.034Z,0
2017-10-25T01:56:15.444Z,0
2017-10-25T01:57:14.361Z,0
2017-10-25T01:58:14.681Z,0
2017-10-25T01:59:14.995Z,0
2017-10-25T02:00:14.660Z,0
2017-10-25T02:01:14.641Z,0
2017-10-25T02:02:14.288Z,0
2017-10-25T02:03:14.624Z,0
2017-10-25T02:04:14.610Z,0
2017-10-25T02:05:14.272Z,0
2017-10-25T02:06:15.272Z,0
2017-10-25T02:07:14.286Z,0
2017-10-25T02:08:14.575Z,0
2017-10-25T02:09:14.566Z,0
2017-10-25T02:10:14.904Z,0
2017-10-25T02:11:14.885Z,0
2017-10-25T02:12:14.882Z,0
2017-10-25T02:13:14.560Z,0
2017-10-25T02:14:14.184Z,0
2017-10-25T02:15:14.537Z,0
2017-10-25T02:16:14.522Z,0
2017-10-25T02:17:14.157Z,0
2017-10-25T02:18:14.835Z,0
2017-10-25T02:19:14.137Z,0
2017-10-25T02:20:14.131Z,0
2017-10-25T02:21:14.838Z,0
2017-10-25T02:22:15.154Z,0
2017-10-25T02:23:15.139Z,0
2017-10-25T02:24:14.096Z,0
2017-10-25T02:25:15.153Z,0
2017-10-25T02:26:14.422Z,0
2017-10-25T02:27:15.110Z,0
2017-10-25T02:28:15.088Z,0
2017-10-25T02:29:14.058Z,0
2017-10-25T02:30:14.385Z,0
2017-10-25T02:31:14.374Z,0
2017-10-25T02:32:15.062Z,0
2017-10-25T02:33:14.355Z,0
2017-10-25T02:34:14.369Z,0
2017-10-25T02:35:14.681Z,0
2017-10-25T02:36:14.338Z,0
2017-10-25T02:37:14.665Z,0
2017-10-25T02:38:14.653Z,0
2017-10-25T02:39:14.303Z,0
2017-10-25T02:40:14.650Z,0
2017-10-25T02:41:14.327Z,0
2017-10-25T02:42:13.937Z,0
2017-10-25T02:43:14.625Z,0
2017-10-25T02:44:14.630Z,0
2017-10-25T02:45:14.253Z,0
2017-10-25T02:46:14.851Z,0
2017-10-25T02:47:14.330Z,0
2017-10-25T02:48:14.682Z,0
2017-10-25T02:49:14.710Z,0
2017-10-25T02:50:14.303Z,0
2017-10-25T02:51:14.893Z,0
2017-10-25T02:52:14.201Z,0
2017-10-25T02:53:14.188Z,0
2017-10-25T02:54:14.871Z,0
2017-10-25T02:55:14.165Z,0
2017-10-25T02:56:14.172Z,0
2017-10-25T02:57:13.825Z,0
2017-10-25T02:58:14.153Z,0
2017-10-25T02:59:14.125Z,0
2017-10-25T03:00:14.137Z,0
2017-10-25T03:01:13.772Z,0
2017-10-25T03:02:13.759Z,0
2017-10-25T03:03:14.792Z,0
2017-10-25T03:04:13.741Z,0
2017-10-25T03:05:14.097Z,0
2017-10-25T03:06:14.085Z,0
2017-10-25T03:07:13.711Z,0
2017-10-25T03:08:14.051Z,0
2017-10-25T03:09:14.040Z,0
2017-10-25T03:10:13.686Z,0
2017-10-25T03:11:14.358Z,0
2017-10-25T03:12:14.029Z,0
2017-10-25T03:13:14.339Z,0
2017-10-25T03:14:13.666Z,0
2017-10-25T03:15:13.992Z,0
2017-10-25T03:16:14.314Z,0
2017-10-25T03:17:13.965Z,0
2017-10-25T03:18:14.296Z,0
2017-10-25T03:19:14.645Z,0
2017-10-25T03:20:14.313Z,0
2017-10-25T03:21:14.276Z,0
2017-10-25T03:22:14.650Z,0
2017-10-25T03:23:13.913Z,0
2017-10-25T03:24:14.261Z,0
2017-10-25T03:25:13.937Z,0
2017-10-25T03:26:14.231Z,0
2017-10-25T03:27:14.554Z,0
2017-10-25T03:28:13.876Z,0
2017-10-25T03:29:13.563Z,0
2017-10-25T03:30:14.194Z,0
2017-10-25T03:31:13.504Z,0
2017-10-25T03:32:13.870Z,0
2017-10-25T03:33:14.175Z,0
2017-10-25T03:34:14.182Z,0
2017-10-25T03:35:13.827Z,0
2017-10-25T03:36:14.135Z,0
2017-10-25T03:37:14.130Z,0
2017-10-25T03:38:14.123Z,0
2017-10-25T03:39:13.654Z,0
2017-10-25T03:40:14.124Z,0
2017-10-25T03:41:13.412Z,0
2017-10-25T03:42:14.083Z,0
2017-10-25T03:43:13.410Z,0
2017-10-25T03:44:13.744Z,0
2017-10-25T03:45:14.063Z,0
2017-10-25T03:46:13.769Z,0
2017-10-25T03:47:14.066Z,0
2017-10-25T03:48:13.689Z,0
2017-10-25T03:49:13.687Z,0
2017-10-25T03:50:13.691Z,0
2017-10-25T03:51:14.003Z,0
2017-10-25T03:52:13.996Z,0
2017-10-25T03:53:13.985Z,0
2017-10-25T03:54:14.666Z,0
2017-10-25T03:55:13.976Z,0
2017-10-25T03:56:13.647Z,0
2017-10-25T03:57:13.269Z,0
2017-10-25T03:58:13.642Z,0
2017-10-25T03:59:13.596Z,0
2017-10-25T04:00:13.590Z,0
2017-10-25T04:01:13.256Z,0
2017-10-25T04:02:13.235Z,0
2017-10-25T04:03:13.914Z,0
2017-10-25T04:04:13.899Z,0
2017-10-25T04:05:13.208Z,0
2017-10-25T04:06:13.186Z,0
2017-10-25T04:07:13.539Z,0
2017-10-25T04:08:13.198Z,0
2017-10-25T04:09:13.513Z,0
2017-10-25T04:10:13.162Z,0
2017-10-25T04:11:13.153Z,0
2017-10-25T04:12:13.136Z,0
2017-10-25T04:13:13.128Z,0
2017-10-25T04:14:13.131Z,0
2017-10-25T04:15:13.112Z,0
2017-10-25T04:16:14.132Z,0
2017-10-25T04:17:13.449Z,0
2017-10-25T04:18:13.484Z,0
2017-10-25T04:19:13.073Z,0
2017-10-25T04:20:13.403Z,0
2017-10-25T04:21:14.079Z,0
2017-10-25T04:22:13.730Z,0
2017-10-25T04:23:13.386Z,0
2017-10-25T04:24:13.388Z,0
2017-10-25T04:25:13.021Z,0
2017-10-25T04:26:13.354Z,0
2017-10-25T04:27:14.030Z,0
2017-10-25T04:28:13.674Z,0
2017-10-25T04:29:14.007Z,0
2017-10-25T04:30:12.988Z,0
2017-10-25T04:31:12.968Z,0
2017-10-25T04:32:12.958Z,0
2017-10-25T04:33:12.949Z,0
2017-10-25T04:34:13.283Z,0
2017-10-25T04:35:13.273Z,0
2017-10-25T04:36:13.284Z,0
2017-10-25T04:37:13.594Z,0
2017-10-25T04:38:13.256Z,0
2017-10-25T04:39:12.900Z,0
2017-10-25T04:40:13.093Z,0
2017-10-25T04:41:13.577Z,0
2017-10-25T04:42:13.581Z,0
2017-10-25T04:43:12.887Z,0
2017-10-25T04:44:13.234Z,0
2017-10-25T04:45:13.538Z,0
2017-10-25T04:46:13.516Z,0
2017-10-25T04:47:13.516Z,0
2017-10-25T04:48:13.160Z,0
2017-10-25T04:49:13.503Z,0
2017-10-25T04:50:13.521Z,0
2017-10-25T04:51:12.811Z,0
2017-10-25T04:52:13.469Z,0
2017-10-25T04:53:13.121Z,0
2017-10-25T04:54:12.770Z,0
2017-10-25T04:55:13.450Z,0
2017-10-25T04:56:12.747Z,0
2017-10-25T04:57:13.426Z,0
2017-10-25T04:58:13.073Z,0
2017-10-25T04:59:12.720Z,0
2017-10-25T05:00:13.761Z,0
2017-10-25T05:01:12.703Z,0
2017-10-25T05:02:13.033Z,0
2017-10-25T05:03:12.685Z,0
2017-10-25T05:04:12.684Z,0
2017-10-25T05:05:13.008Z,0
2017-10-25T05:06:13.340Z,0
2017-10-25T05:07:12.990Z,0
2017-10-25T05:08:12.722Z,0
2017-10-25T05:09:12.970Z,0
2017-10-25T05:10:13.305Z,0
2017-10-25T05:11:13.316Z,0
2017-10-25T05:12:12.981Z,0
2017-10-25T05:13:12.598Z,0
2017-10-25T05:14:13.294Z,0
2017-10-25T05:15:12.921Z,0
2017-10-25T05:16:12.942Z,0
2017-10-25T05:17:12.562Z,0
2017-10-25T05:18:12.553Z,0
2017-10-25T05:19:12.896Z,0
2017-10-25T05:20:12.541Z,0
2017-10-25T05:21:12.527Z,0
2017-10-25T05:22:12.861Z,0
2017-10-25T05:23:12.512Z,0
2017-10-25T05:24:13.197Z,0
2017-10-25T05:25:12.857Z,0
2017-10-25T05:26:13.524Z,0
2017-10-25T05:27:12.833Z,0
2017-10-25T05:28:12.469Z,0
2017-10-25T05:29:12.845Z,0
2017-10-25T05:30:12.816Z,0
2017-10-25T05:31:12.443Z,0
2017-10-25T05:32:12.774Z,0
2017-10-25T05:33:12.440Z,0
2017-10-25T05:34:12.414Z,0
2017-10-25T05:35:13.107Z,0
2017-10-25T05:36:13.081Z,0
2017-10-25T05:37:12.729Z,0
2017-10-25T05:38:13.062Z,0
2017-10-25T05:39:12.713Z,0
2017-10-25T05:40:12.705Z,0
2017-10-25T05:41:12.692Z,0
2017-10-25T05:42:13.038Z,0
2017-10-25T05:43:12.688Z,0
2017-10-25T05:44:12.667Z,0
2017-10-25T05:45:12.328Z,0
2017-10-25T05:46:12.994Z,0
2017-10-25T05:47:12.299Z,0
2017-10-25T05:48:12.639Z,0
2017-10-25T05:49:12.285Z,0
2017-10-25T05:50:12.985Z,0
2017-10-25T05:51:12.607Z,0
2017-10-25T05:52:12.268Z,5
2017-10-25T05:53:12.943Z,5
2017-10-25T05:54:12.242Z,5
2017-10-25T05:55:12.233Z,5
2017-10-25T05:56:12.241Z,5
2017-10-25T05:57:12.556Z,5
2017-10-25T05:58:12.207Z,5
2017-10-25T05:59:12.883Z,5
2017-10-25T06:00:12.875Z,5
2017-10-25T06:01:12.183Z,10
2017-10-25T06:02:12.171Z,10
2017-10-25T06:03:12.840Z,10
2017-10-25T06:04:14.811Z,10
2017-10-25T06:05:12.507Z,15
2017-10-25T06:06:13.170Z,15
2017-10-25T06:07:12.485Z,10
2017-10-25T06:08:12.798Z,10
2017-10-25T06:09:13.135Z,15
2017-10-25T06:10:13.126Z,15
2017-10-25T06:11:12.094Z,20
2017-10-25T06:12:12.425Z,20
2017-10-25T06:13:12.085Z,20
2017-10-25T06:14:12.410Z,25
2017-10-25T06:15:12.419Z,25
2017-10-25T06:16:12.391Z,30
2017-10-25T06:17:12.397Z,30
2017-10-25T06:18:12.039Z,30
2017-10-25T06:19:12.366Z,30
2017-10-25T06:20:12.695Z,30
2017-10-25T06:21:12.349Z,30
2017-10-25T06:22:12.340Z,30
2017-10-25T06:23:12.330Z,30
2017-10-25T06:24:11.988Z,30
2017-10-25T06:25:12.659Z,30
2017-10-25T06:26:11.965Z,30
2017-10-25T06:27:12.634Z,30
2017-10-25T06:28:11.954Z,30
2017-10-25T06:29:12.282Z,30
2017-10-25T06:30:12.274Z,35
2017-10-25T06:31:12.274Z,35
2017-10-25T06:32:12.261Z,40
2017-10-25T06:33:12.284Z,40
2017-10-25T06:34:12.242Z,35
2017-10-25T06:35:12.241Z,40
2017-10-25T06:36:11.882Z,50
2017-10-25T06:37:12.231Z,50
2017-10-25T06:38:12.542Z,45
2017-10-25T06:39:12.889Z,40
2017-10-25T06:40:12.208Z,30
2017-10-25T06:41:12.180Z,25
2017-10-25T06:42:12.514Z,30
2017-10-25T06:43:12.503Z,35
2017-10-25T06:44:11.815Z,40
2017-10-25T06:45:12.835Z,40
2017-10-25T06:46:12.484Z,40
2017-10-25T06:47:12.480Z,45
2017-10-25T06:48:12.123Z,35
2017-10-25T06:49:11.774Z,35
2017-10-25T06:50:11.791Z,35
2017-10-25T06:51:12.456Z,35
2017-10-25T06:52:12.117Z,30
2017-10-25T06:53:12.090Z,35
2017-10-25T06:54:12.428Z,45
2017-10-25T06:55:12.068Z,55
2017-10-25T06:56:11.738Z,65
2017-10-25T06:57:12.056Z,65
2017-10-25T06:58:12.049Z,70
2017-10-25T06:59:12.032Z,70
2017-10-25T07:00:12.027Z,70
2017-10-25T07:01:12.014Z,70
2017-10-25T07:02:11.669Z,65
2017-10-25T07:03:11.664Z,65
2017-10-25T07:04:11.649Z,65
2017-10-25T07:05:12.003Z,70
2017-10-25T07:06:12.317Z,70
2017-10-25T07:07:12.650Z,70
2017-10-25T07:08:12.316Z,75
2017-10-25T07:09:12.289Z,80
2017-10-25T07:10:11.964Z,85
2017-10-25T07:11:11.620Z,70
2017-10-25T07:12:12.288Z,70
2017-10-25T07:13:11.579Z,75
2017-10-25T07:14:11.577Z,75
2017-10-25T07:15:12.238Z,75
2017-10-25T07:16:12.235Z,70
2017-10-25T07:17:11.544Z,75
2017-10-25T07:18:11.877Z,75
2017-10-25T07:19:11.868Z,80
2017-10-25T07:20:12.199Z,85
2017-10-25T07:21:11.850Z,95
2017-10-25T07:22:11.841Z,105
2017-10-25T07:23:12.198Z,105
2017-10-25T07:24:11.489Z,90
2017-10-25T07:25:12.521Z,85
2017-10-25T07:26:11.813Z,100
2017-10-25T07:27:11.463Z,105
2017-10-25T07:28:11.468Z,105
2017-10-25T07:29:12.181Z,100
2017-10-25T07:30:11.782Z,90
2017-10-25T07:31:11.430Z,70
2017-10-25T07:32:11.439Z,65
2017-10-25T07:33:11.755Z,65
2017-10-25T07:34:11.407Z,70
2017-10-25T07:35:12.121Z,75
2017-10-25T07:36:12.090Z,90
2017-10-25T07:37:11.724Z,85
2017-10-25T07:38:12.058Z,85
2017-10-25T07:39:11.711Z,80
2017-10-25T07:40:11.717Z,75
2017-10-25T07:41:12.040Z,75
2017-10-25T07:42:12.370Z,80
2017-10-25T07:43:11.681Z,85
2017-10-25T07:44:11.326Z,90
2017-10-25T07:45:11.661Z,90
2017-10-25T07:46:11.994Z,85
2017-10-25T07:47:12.326Z,85
2017-10-25T07:48:11.635Z,85
2017-10-25T07:49:12.009Z,85
2017-10-25T07:50:11.660Z,90
2017-10-25T07:51:11.953Z,95
2017-10-25T07:52:11.608Z,95
2017-10-25T07:53:11.762Z,90
2017-10-25T07:54:11.973Z,90
2017-10-25T07:55:11.602Z,90
2017-10-25T07:56:11.589Z,80
2017-10-25T07:57:11.569Z,75
2017-10-25T07:58:11.222Z,75
2017-10-25T07:59:11.210Z,90
2017-10-25T08:00:11.912Z,100
2017-10-25T08:01:11.535Z,115
2017-10-25T08:02:11.203Z,125
2017-10-25T08:03:11.545Z,125
2017-10-25T08:04:11.591Z,130
2017-10-25T08:05:11.526Z,135
2017-10-25T08:06:11.162Z,145
2017-10-25T08:07:11.494Z,150
2017-10-25T08:08:11.482Z,170
2017-10-25T08:09:11.483Z,180
2017-10-25T08:10:11.478Z,190
2017-10-25T08:11:12.142Z,180
2017-10-25T08:12:11.790Z,175
2017-10-25T08:13:11.104Z,170
2017-10-25T08:14:11.098Z,175
2017-10-25T08:15:11.447Z,175
2017-10-25T08:16:12.442Z,185
2017-10-25T08:17:11.077Z,205
2017-10-25T08:18:11.473Z,205
2017-10-25T08:19:11.407Z,205
2017-10-25T08:20:11.433Z,195
2017-10-25T08:21:11.395Z,185
2017-10-25T08:22:11.723Z,185
2017-10-25T08:23:11.378Z,190
2017-10-25T08:24:11.362Z,200
2017-10-25T08:25:11.770Z,215
2017-10-25T08:26:12.044Z,215
2017-10-25T08:27:11.705Z,195
2017-10-25T08:28:12.033Z,200
2017-10-25T08:29:11.671Z,195
2017-10-25T08:30:11.328Z,190
2017-10-25T08:31:11.354Z,180
2017-10-25T08:32:11.651Z,165
2017-10-25T08:33:12.008Z,165
2017-10-25T08:34:11.639Z,155
2017-10-25T08:35:10.949Z,135
2017-10-25T08:36:10.957Z,135
2017-10-25T08:37:11.691Z,135
2017-10-25T08:38:10.991Z,135
2017-10-25T08:39:11.622Z,150
2017-10-25T08:40:11.625Z,165
2017-10-25T08:41:11.701Z,185
2017-10-25T08:42:11.254Z,180
2017-10-25T08:43:11.575Z,165
2017-10-25T08:44:11.241Z,140
2017-10-25T08:45:11.238Z,120
2017-10-25T08:46:11.211Z,140
2017-10-25T08:47:11.209Z,165
2017-10-25T08:48:10.857Z,175
2017-10-25T08:49:11.901Z,140
2017-10-25T08:50:11.202Z,125
2017-10-25T08:51:10.850Z,150
2017-10-25T08:52:11.169Z,135
2017-10-25T08:53:11.507Z,160
2017-10-25T08:54:11.166Z,145
2017-10-25T08:55:11.153Z,145
2017-10-25T08:56:11.155Z,165
2017-10-25T08:57:10.890Z,185
2017-10-25T08:58:11.812Z,170
2017-10-25T08:59:10.790Z,170
2017-10-25T09:00:11.141Z,165
2017-10-25T09:01:11.823Z,160
2017-10-25T09:02:11.482Z,145
2017-10-25T09:03:11.100Z,185
2017-10-25T09:04:11.097Z,190
2017-10-25T09:05:11.136Z,185
2017-10-25T09:06:10.736Z,175
2017-10-25T09:07:11.440Z,150
2017-10-25T09:08:11.763Z,160
2017-10-25T09:09:10.720Z,210
2017-10-25T09:10:11.399Z,215
2017-10-25T09:11:11.058Z,210
2017-10-25T09:12:11.736Z,190
2017-10-25T09:13:10.695Z,175
2017-10-25T09:14:11.035Z,180
2017-10-25T09:15:11.015Z,175
2017-10-25T09:16:11.005Z,160
2017-10-25T09:17:11.021Z,160
2017-10-25T09:18:11.687Z,140
2017-10-25T09:19:10.654Z,170
2017-10-25T09:20:11.339Z,180
2017-10-25T09:21:11.311Z,160
2017-10-25T09:22:11.316Z,180
2017-10-25T09:23:10.677Z,145
2017-10-25T09:24:10.991Z,135
2017-10-25T09:25:11.287Z,135
2017-10-25T09:26:11.628Z,130
2017-10-25T09:27:10.932Z,140
2017-10-25T09:28:10.927Z,180
2017-10-25T09:29:10.932Z,215
2017-10-25T09:30:10.572Z,220
2017-10-25T09:31:10.564Z,210
2017-10-25T09:32:11.249Z,230
2017-10-25T09:33:10.556Z,240
2017-10-25T09:34:10.563Z,250
2017-10-25T09:35:10.888Z,235
2017-10-25T09:36:11.919Z,230
2017-10-25T09:37:10.558Z,210
2017-10-25T09:38:10.875Z,190
2017-10-25T09:39:10.514Z,190
2017-10-25T09:40:11.203Z,170
2017-10-25T09:41:11.523Z,145
2017-10-25T09:42:10.849Z,140
2017-10-25T09:43:10.495Z,165
2017-10-25T09:44:11.169Z,200
2017-10-25T09:45:11.162Z,205
2017-10-25T09:46:10.818Z,190
2017-10-25T09:47:10.803Z,200
2017-10-25T09:48:11.140Z,180
2017-10-25T09:49:10.455Z,160
2017-10-25T09:50:10.785Z,185
2017-10-25T09:51:10.782Z,185
2017-10-25T09:52:10.775Z,190
2017-10-25T09:53:11.115Z,210
2017-10-25T09:54:10.766Z,255
2017-10-25T09:55:10.416Z,265
2017-10-25T09:56:11.435Z,265
2017-10-25T09:57:11.103Z,275
2017-10-25T09:58:10.748Z,300
2017-10-25T09:59:10.743Z,280
2017-10-25T10:00:10.730Z,240
2017-10-25T10:01:10.381Z,250
2017-10-25T10:02:10.373Z,265
2017-10-25T10:03:11.407Z,260
2017-10-25T10:04:11.043Z,280
2017-10-25T10:05:10.356Z,230
2017-10-25T10:06:10.376Z,235
2017-10-25T10:07:10.349Z,265
2017-10-25T10:08:10.686Z,250
2017-10-25T10:09:11.011Z,270
2017-10-25T10:10:10.750Z,305
2017-10-25T10:11:10.321Z,330
2017-10-25T10:12:10.656Z,360
2017-10-25T10:13:10.309Z,360
2017-10-25T10:14:10.643Z,350
2017-10-25T10:15:10.301Z,335
2017-10-25T10:16:10.291Z,345
2017-10-25T10:17:10.284Z,325
2017-10-25T10:18:10.294Z,285
2017-10-25T10:19:10.275Z,280
2017-10-25T10:20:10.328Z,285
2017-10-25T10:21:10.258Z,270
2017-10-25T10:22:10.958Z,260
2017-10-25T10:23:10.275Z,260
2017-10-25T10:24:10.590Z,235
2017-10-25T10:25:11.301Z,265
2017-10-25T10:26:10.591Z,295
2017-10-25T10:27:10.916Z,300
2017-10-25T10:28:10.564Z,300
2017-10-25T10:29:10.921Z,285
2017-10-25T10:30:10.213Z,290
2017-10-25T10:31:10.548Z,315
2017-10-25T10:32:10.887Z,300
2017-10-25T10:33:10.536Z,235
2017-10-25T10:34:10.538Z,205
2017-10-25T10:35:10.538Z,155
2017-10-25T10:36:10.209Z,155
2017-10-25T10:37:11.233Z,155
2017-10-25T10:38:10.174Z,200
2017-10-25T10:39:10.175Z,160
2017-10-25T10:40:10.164Z,140
2017-10-25T10:41:10.516Z,155
2017-10-25T10:42:10.496Z,180
2017-10-25T10:43:10.848Z,175
2017-10-25T10:44:10.154Z,130
2017-10-25T10:45:10.831Z,100
2017-10-25T10:46:10.831Z,90
2017-10-25T10:47:10.853Z,105
2017-10-25T10:48:10.801Z,140
2017-10-25T10:49:10.461Z,105
2017-10-25T10:50:10.470Z,115
2017-10-25T10:51:10.448Z,95
2017-10-25T10:52:10.450Z,175
2017-10-25T10:53:11.111Z,155
2017-10-25T10:54:10.452Z,140
2017-10-25T10:55:10.787Z,135
2017-10-25T10:56:10.791Z,125
2017-10-25T10:57:10.414Z,155
2017-10-25T10:58:11.085Z,135
2017-10-25T10:59:10.397Z,205
2017-10-25T11:00:10.081Z,270
2017-10-25T11:01:10.047Z,285
2017-10-25T11:02:10.399Z,290
2017-10-25T11:03:10.376Z,285
2017-10-25T11:04:11.052Z,280
2017-10-25T11:05:11.085Z,270
2017-10-25T11:06:10.023Z,265
2017-10-25T11:07:10.356Z,255
2017-10-25T11:08:10.011Z,275
2017-10-25T11:09:10.683Z,285
2017-10-25T11:10:09.998Z,260
2017-10-25T11:11:10.681Z,270
2017-10-25T11:12:10.348Z,285
2017-10-25T11:13:10.354Z,275
2017-10-25T11:14:09.979Z,280
2017-10-25T11:15:10.314Z,265
2017-10-25T11:16:09.969Z,260
2017-10-25T11:17:10.659Z,255
2017-10-25T11:18:10.301Z,275
2017-10-25T11:19:10.291Z,280
2017-10-25T11:20:10.641Z,300
2017-10-25T11:21:10.969Z,290
2017-10-25T11:22:09.936Z,280
2017-10-25T11:23:10.275Z,245
2017-10-25T11:24:10.267Z,255
2017-10-25T11:25:10.951Z,255
2017-10-25T11:26:10.613Z,305
2017-10-25T11:27:10.261Z,265
2017-10-25T11:28:10.279Z,215
2017-10-25T11:29:09.902Z,190
2017-10-25T11:30:09.901Z,195
2017-10-25T11:31:10.122Z,230
2017-10-25T11:32:10.274Z,220
2017-10-25T11:33:10.587Z,215
2017-10-25T11:34:10.565Z,220
2017-10-25T11:35:10.568Z,230
2017-10-25T11:36:09.879Z,210
2017-10-25T11:37:09.874Z,215
2017-10-25T11:38:10.203Z,225
2017-10-25T11:39:10.539Z,185
2017-10-25T11:40:09.864Z,175
2017-10-25T11:41:10.534Z,185
2017-10-25T11:42:10.200Z,195
2017-10-25T11:43:10.862Z,210
2017-10-25T11:44:10.515Z,205
2017-10-25T11:45:09.824Z,180
2017-10-25T11:46:10.506Z,190
2017-10-25T11:47:10.496Z,170
2017-10-25T11:48:10.488Z,150
2017-10-25T11:49:09.821Z,150
2017-10-25T11:50:09.804Z,140
2017-10-25T11:51:10.475Z,135
2017-10-25T11:52:10.134Z,135
2017-10-25T11:53:10.125Z,150
2017-10-25T11:54:10.808Z,135
2017-10-25T11:55:10.807Z,135
2017-10-25T11:56:10.126Z,135
2017-10-25T11:57:10.475Z,145
2017-10-25T11:58:10.470Z,150
2017-10-25T11:59:10.451Z,165
2017-10-25T12:00:10.443Z,145
2017-10-25T12:01:10.090Z,140
2017-10-25T12:02:10.438Z,135
2017-10-25T12:03:09.735Z,155
2017-10-25T12:04:10.415Z,160
2017-10-25T12:05:10.747Z,135
2017-10-25T12:06:10.062Z,140
2017-10-25T12:07:10.070Z,155
2017-10-25T12:08:10.050Z,145
2017-10-25T12:09:10.046Z,160
2017-10-25T12:10:10.395Z,185
2017-10-25T12:11:10.370Z,155
2017-10-25T12:12:10.030Z,155
2017-10-25T12:13:10.020Z,145
2017-10-25T12:14:10.017Z,155
2017-10-25T12:15:10.033Z,170
2017-10-25T12:16:10.348Z,150
2017-10-25T12:17:10.347Z,145
2017-10-25T12:18:10.337Z,155
2017-10-25T12:19:09.651Z,165
2017-10-25T12:20:10.672Z,185
2017-10-25T12:21:10.671Z,165
2017-10-25T12:22:09.659Z,185
2017-10-25T12:23:09.987Z,200
2017-10-25T12:24:10.313Z,220
2017-10-25T12:25:09.622Z,230
2017-10-25T12:26:09.951Z,210
2017-10-25T12:27:09.984Z,230
2017-10-25T12:28:10.284Z,210
2017-10-25T12:29:09.937Z,235
2017-10-25T12:30:09.938Z,185
2017-10-25T12:31:09.587Z,175
2017-10-25T12:32:09.939Z,170
2017-10-25T12:33:10.257Z,170
2017-10-25T12:34:10.252Z,150
2017-10-25T12:35:09.923Z,160
2017-10-25T12:36:10.580Z,160
2017-10-25T12:37:10.237Z,165
2017-10-25T12:38:10.228Z,150
2017-10-25T12:39:09.885Z,155
2017-10-25T12:40:09.883Z,185
2017-10-25T12:41:10.567Z,170
2017-10-25T12:42:10.230Z,185
2017-10-25T12:43:10.204Z,205
2017-10-25T12:44:09.520Z,165
2017-10-25T12:45:10.536Z,190
2017-10-25T12:46:10.186Z,185
2017-10-25T12:47:09.505Z,215
2017-10-25T12:48:09.843Z,185
2017-10-25T12:49:09.833Z,205
2017-10-25T12:50:09.517Z,245
2017-10-25T12:51:10.198Z,195
2017-10-25T12:52:09.809Z,200
2017-10-25T12:53:09.649Z,185
2017-10-25T12:54:10.506Z,195
2017-10-25T12:55:10.149Z,190
2017-10-25T12:56:10.137Z,145
2017-10-25T12:57:09.808Z,120
2017-10-25T12:58:10.810Z,120
2017-10-25T12:59:09.837Z,170
2017-10-25T13:00:10.123Z,160
2017-10-25T13:01:10.501Z,145
2017-10-25T13:02:09.777Z,145
2017-10-25T13:03:09.764Z,120
2017-10-25T13:04:09.421Z,115
2017-10-25T13:05:09.754Z,125
2017-10-25T13:06:09.410Z,165
2017-10-25T13:07:10.104Z,135
2017-10-25T13:08:10.074Z,190
2017-10-25T13:09:10.072Z,170
2017-10-25T13:10:10.099Z,140
2017-10-25T13:11:09.726Z,125
2017-10-25T13:12:09.729Z,120
2017-10-25T13:13:10.414Z,120
2017-10-25T13:14:09.708Z,130
2017-10-25T13:15:10.398Z,140
2017-10-25T13:16:10.382Z,120
2017-10-25T13:17:09.693Z,120
2017-10-25T13:18:09.686Z,120
2017-10-25T13:19:09.682Z,120
2017-10-25T13:20:09.678Z,110
2017-10-25T13:21:09.675Z,135
2017-10-25T13:22:10.009Z,120
2017-10-25T13:23:09.675Z,110
2017-10-25T13:24:09.657Z,110
2017-10-25T13:25:10.037Z,115
2017-10-25T13:26:09.649Z,115
2017-10-25T13:27:10.323Z,115
2017-10-25T13:28:10.325Z,165
2017-10-25T13:29:09.976Z,135
2017-10-25T13:30:09.967Z,120
2017-10-25T13:31:09.281Z,140
2017-10-25T13:32:09.276Z,115
2017-10-25T13:33:09.610Z,135
2017-10-25T13:34:09.964Z,155
2017-10-25T13:35:09.967Z,145
2017-10-25T13:36:09.935Z,150
2017-10-25T13:37:10.288Z,130
2017-10-25T13:38:09.250Z,115
2017-10-25T13:39:10.266Z,150
2017-10-25T13:40:09.926Z,215
2017-10-25T13:41:09.564Z,140
2017-10-25T13:42:09.584Z,130
2017-10-25T13:43:09.921Z,155
2017-10-25T13:44:09.905Z,170
2017-10-25T13:45:09.551Z,170
2017-10-25T13:46:09.895Z,165
2017-10-25T13:47:09.537Z,140
2017-10-25T13:48:09.544Z,170
2017-10-25T13:49:09.534Z,150
2017-10-25T13:50:10.218Z,145
2017-10-25T13:51:09.517Z,150
2017-10-25T13:52:10.224Z,145
2017-10-25T13:53:09.168Z,125
2017-10-25T13:54:09.534Z,115
2017-10-25T13:55:09.499Z,130
2017-10-25T13:56:09.832Z,135
2017-10-25T13:57:09.158Z,115
2017-10-25T13:58:09.844Z,110
2017-10-25T13:59:09.144Z,125
2017-10-25T14:00:09.134Z,135
2017-10-25T14:01:09.495Z,110
2017-10-25T14:02:09.141Z,95
2017-10-25T14:03:09.456Z,95
2017-10-25T14:04:09.827Z,100
2017-10-25T14:05:10.131Z,115
2017-10-25T14:06:09.101Z,105
2017-10-25T14:07:09.476Z,110
2017-10-25T14:08:10.115Z,115
2017-10-25T14:09:09.431Z,110
2017-10-25T14:10:09.757Z,105
2017-10-25T14:11:10.102Z,100
2017-10-25T14:12:09.425Z,95
2017-10-25T14:13:09.064Z,100
2017-10-25T14:14:09.418Z,95
2017-10-25T14:15:09.735Z,95